Time;durP1;ratioP1;P1;durP2;ratioP2;P2;SDS_P1;SDS_P2;PMS_P1;PMS_P2;Temp;Humidity;BMP_temperature;BMP_pressure;BME280_temperature;BME280_humidity;BME280_pressure;Samples;Min_cycle;Max_cycle;Signal;HPM_P1;HPM_P2
2022/05/19 00:01:01;;;;;;;11.30;6.00;;;;;;;18.96;66.85;99768.00;5005554;28;20038;-66
2022/05/19 00:03:27;;;;;;;7.43;5.25;;;;;;;18.98;66.52;99776.75;5004920;28;20417;-64
2022/05/19 00:05:53;;;;;;;9.30;5.45;;;;;;;18.91;66.84;99766.72;5004899;28;20030;-64
2022/05/19 00:08:18;;;;;;;8.23;4.88;;;;;;;18.90;65.42;99775.69;5008698;28;20049;-65
2022/05/19 00:10:43;;;;;;;15.10;6.72;;;;;;;18.91;64.61;99756.03;5008675;28;20098;-65
2022/05/19 00:13:09;;;;;;;6.07;4.20;;;;;;;18.91;63.43;99753.34;5008682;28;20045;-65
2022/05/19 00:15:34;;;;;;;5.68;4.75;;;;;;;18.91;63.90;99758.72;5008722;28;20091;-65
2022/05/19 00:17:59;;;;;;;6.97;4.68;;;;;;;18.92;63.80;99747.88;5008524;28;20421;-65
2022/05/19 00:20:25;;;;;;;7.25;4.30;;;;;;;18.93;63.41;99738.06;5009254;28;20038;-65
2022/05/19 00:22:50;;;;;;;5.22;3.90;;;;;;;18.91;63.63;99735.50;5010173;28;20410;-66
2022/05/19 00:25:15;;;;;;;6.53;5.00;;;;;;;18.87;64.45;99736.72;5008392;28;20076;-65
2022/05/19 00:27:43;;;;;;;5.90;4.60;;;;;;;18.88;63.33;99730.44;5007868;28;20150;-65
2022/05/19 00:30:09;;;;;;;10.23;4.30;;;;;;;18.88;63.77;99727.75;5008192;28;20095;-65
2022/05/19 00:32:34;;;;;;;6.15;4.63;;;;;;;18.89;62.82;99726.75;5008592;28;20041;-61
2022/05/19 00:34:59;;;;;;;5.53;3.92;;;;;;;18.96;60.99;99732.44;5009198;28;20129;-63
2022/05/19 00:37:25;;;;;;;4.57;3.03;;;;;;;19.06;59.25;99728.84;5007414;28;20053;-66
2022/05/19 00:39:50;;;;;;;5.90;4.18;;;;;;;19.20;59.98;99734.84;5006261;28;20037;-63
2022/05/19 00:45:01;;;;;;;4.05;3.08;;;;;;;19.40;58.67;99725.09;5006751;28;20080;-63
2022/05/19 00:47:34;;;;;;;5.95;3.55;;;;;;;19.52;57.32;99729.38;5007012;28;20038;-66
2022/05/19 00:50:02;;;;;;;4.97;2.70;;;;;;;19.56;56.30;99722.75;5007868;28;20099;-63
2022/05/19 00:52:34;;;;;;;5.07;3.00;;;;;;;19.59;58.89;99714.50;5008248;28;20034;-64
2022/05/19 00:55:09;;;;;;;6.47;3.53;;;;;;;19.47;59.06;99713.72;5007551;28;20042;-62
2022/05/19 00:57:39;;;;;;;6.57;3.78;;;;;;;19.45;59.79;99713.00;5004253;28;20045;-64
2022/05/19 01:00:17;;;;;;;6.53;3.90;;;;;;;19.38;59.70;99709.19;5007045;28;20490;-65
2022/05/19 01:02:50;;;;;;;6.03;3.90;;;;;;;19.36;59.35;99715.66;5005213;28;20042;-64
2022/05/19 01:05:34;;;;;;;5.57;3.72;;;;;;;19.34;59.20;99715.75;5007926;28;20038;-63
2022/05/19 01:08:28;;;;;;;6.90;3.58;;;;;;;19.29;59.92;99707.31;5007167;28;20438;-62
2022/05/19 01:10:57;;;;;;;5.45;3.58;;;;;;;19.22;59.51;99709.69;5006643;28;20037;-65
2022/05/19 01:13:23;;;;;;;5.28;4.10;;;;;;;19.19;59.81;99703.75;5006485;28;20037;-65
2022/05/19 01:15:53;;;;;;;8.10;3.72;;;;;;;19.14;59.53;99713.97;5007150;28;20653;-64
2022/05/19 01:18:20;;;;;;;4.45;3.33;;;;;;;19.12;60.19;99708.75;5006396;28;20053;-65
2022/05/19 01:20:47;;;;;;;3.55;3.20;;;;;;;19.09;59.93;99714.38;5007330;28;20457;-66
2022/05/19 01:23:38;;;;;;;7.57;4.22;;;;;;;19.05;60.77;99708.47;5005510;28;20053;-64
2022/05/19 01:26:24;;;;;;;3.97;3.20;;;;;;;19.01;60.41;99699.00;5006115;28;20038;-65
2022/05/19 01:28:49;;;;;;;;;;;;;;;18.97;60.71;99705.56;5006971;28;20034;-65
2022/05/19 01:31:37;;;;;;;6.20;4.35;;;;;;;18.92;61.17;99699.78;5006735;28;20020;-65
2022/05/19 01:34:05;;;;;;;4.75;3.65;;;;;;;18.87;61.06;99700.16;5007155;28;20033;-63
2022/05/19 01:36:31;;;;;;;6.25;3.97;;;;;;;18.88;60.49;99706.38;5006132;28;20041;-63
2022/05/19 01:39:09;;;;;;;7.55;3.58;;;;;;;18.80;61.29;99700.81;5006855;28;20623;-64
2022/05/19 01:41:49;;;;;;;6.97;3.83;;;;;;;18.78;61.83;99705.44;5006125;28;20037;-64
2022/05/19 01:44:31;;;;;;;5.63;3.40;;;;;;;18.71;61.79;99694.44;5005950;28;20156;-65
2022/05/19 01:47:08;;;;;;;5.93;3.95;;;;;;;18.64;62.02;99696.75;5006270;28;20603;-66
2022/05/19 01:49:47;;;;;;;7.80;4.03;;;;;;;18.56;62.36;99695.72;5005892;28;20049;-65
2022/05/19 01:52:28;;;;;;;5.07;4.28;;;;;;;18.53;62.32;99694.13;5006087;28;20525;-64
2022/05/19 01:55:17;;;;;;;6.57;4.35;;;;;;;18.55;62.49;99691.34;5006761;28;20505;-65
2022/05/19 01:57:58;;;;;;;9.57;4.13;;;;;;;18.48;62.56;99690.16;5005343;28;20030;-64
2022/05/19 02:00:26;;;;;;;5.88;4.13;;;;;;;18.43;62.77;99691.41;5007022;28;20042;-65
2022/05/19 02:03:05;;;;;;;6.50;4.25;;;;;;;18.43;62.24;99682.53;5006145;28;20034;-65
2022/05/19 02:05:39;;;;;;;6.35;4.35;;;;;;;18.41;62.47;99687.16;5004872;28;20043;-64
2022/05/19 02:08:10;;;;;;;5.45;3.50;;;;;;;18.36;62.36;99678.69;5004249;28;20049;-66
2022/05/19 02:10:42;;;;;;;5.30;3.78;;;;;;;18.34;62.45;99683.31;5006026;28;20716;-65
2022/05/19 02:13:08;;;;;;;4.72;3.67;;;;;;;18.31;62.74;99684.44;5006899;28;20462;-65
2022/05/19 02:15:40;;;;;;;5.53;3.75;;;;;;;18.26;62.51;99683.94;5006817;28;20556;-63
2022/05/19 02:18:05;;;;;;;6.40;4.00;;;;;;;18.23;62.91;99687.72;5005588;28;20030;-62
2022/05/19 02:20:31;;;;;;;6.93;5.00;;;;;;;18.20;63.02;99685.28;5005312;28;20774;-65
2022/05/19 02:22:57;;;;;;;5.40;4.57;;;;;;;18.16;63.24;99686.53;5004256;28;20042;-65
2022/05/19 02:25:40;;;;;;;6.95;5.07;;;;;;;18.16;63.11;99683.00;5006588;28;20583;-65
2022/05/19 02:28:31;;;;;;;6.22;5.00;;;;;;;18.18;63.54;99679.25;5005630;28;20415;-64
2022/05/19 02:30:57;;;;;;;9.32;5.43;;;;;;;18.20;63.63;99682.63;5006010;28;20068;-65
2022/05/19 02:33:23;;;;;;;8.32;5.22;;;;;;;18.20;63.23;99682.63;5006357;28;20050;-64
2022/05/19 02:35:49;;;;;;;6.75;5.50;;;;;;;18.20;63.37;99679.13;5005731;28;20095;-62
2022/05/19 02:38:16;;;;;;;7.80;5.38;;;;;;;18.18;63.68;99670.38;5006333;28;20121;-65
2022/05/19 02:40:42;;;;;;;8.93;5.35;;;;;;;18.18;63.43;99671.22;5006455;28;20034;-68
2022/05/19 02:43:09;;;;;;;7.22;5.93;;;;;;;18.18;63.60;99679.25;5006556;28;20497;-63
2022/05/19 02:45:36;;;;;;;12.40;6.13;;;;;;;18.21;63.42;99670.13;5006520;28;20041;-64
2022/05/19 02:48:03;;;;;;;7.57;4.88;;;;;;;18.16;63.70;99665.19;5005333;28;20106;-65
2022/05/19 02:50:30;;;;;;;8.93;4.53;;;;;;;18.12;63.81;99661.09;5006202;28;20457;-63
2022/05/19 02:52:58;;;;;;;6.25;4.25;;;;;;;18.16;63.38;99657.19;5006149;28;20041;-64
2022/05/19 02:55:24;;;;;;;6.00;4.55;;;;;;;18.15;63.44;99660.81;4998978;28;20034;-64
2022/05/19 02:57:50;;;;;;;7.30;4.63;;;;;;;18.18;63.62;99649.03;5023515;28;20177;-62
2022/05/19 03:00:19;;;;;;;7.20;4.57;;;;;;;18.19;63.74;99650.75;5006220;28;20820;-66
2022/05/19 03:02:46;;;;;;;6.03;4.72;;;;;;;18.20;63.89;99652.44;5005602;28;20045;-64
2022/05/19 03:05:19;;;;;;;11.95;4.55;;;;;;;18.20;63.52;99655.94;5007832;28;20034;-66
2022/05/19 03:07:44;;;;;;;5.25;4.18;;;;;;;18.21;63.46;99655.00;5004469;28;20394;-64
2022/05/19 03:10:10;;;;;;;6.22;3.92;;;;;;;18.24;63.23;99654.72;5007385;28;20065;-63
2022/05/19 03:12:37;;;;;;;6.70;4.20;;;;;;;18.22;63.56;99656.66;5007968;28;20145;-62
2022/05/19 03:15:04;;;;;;;5.93;3.90;;;;;;;18.21;63.60;99654.13;5007424;28;20408;-61
2022/05/19 03:17:30;;;;;;;7.40;3.88;;;;;;;18.19;63.63;99662.28;5007103;28;20453;-62
2022/05/19 03:19:56;;;;;;;5.35;3.78;;;;;;;18.18;63.70;99663.22;5006109;28;20042;-64
2022/05/19 03:22:22;;;;;;;7.30;3.88;;;;;;;18.20;64.01;99661.28;5006627;28;20042;-66
2022/05/19 03:24:48;;;;;;;6.43;4.38;;;;;;;18.17;63.96;99666.03;5003727;28;20042;-64
2022/05/19 03:27:14;;;;;;;9.02;4.82;;;;;;;18.21;63.71;99665.66;5004849;28;20046;-61
2022/05/19 03:29:42;;;;;;;5.63;3.15;;;;;;;18.28;63.33;99670.47;5006446;28;20040;-62
2022/05/19 03:32:08;;;;;;;4.47;3.00;;;;;;;18.34;62.60;99669.97;5003385;28;20836;-63
2022/05/19 03:34:33;;;;;;;5.82;4.03;;;;;;;18.41;61.99;99666.66;5005207;28;20085;-65
2022/05/19 03:37:02;;;;;;;6.55;3.75;;;;;;;18.58;61.14;99659.03;5005554;28;20064;-65
2022/05/19 03:39:27;;;;;;;5.80;3.30;;;;;;;18.75;58.17;99657.59;5005854;28;20045;-65
2022/05/19 03:41:53;;;;;;;5.00;3.22;;;;;;;19.03;57.79;99651.63;5006640;28;20037;-64
2022/05/19 03:44:18;;;;;;;6.47;3.55;;;;;;;19.31;57.41;99659.91;5009246;28;20871;-61
2022/05/19 03:46:43;;;;;;;5.22;3.28;;;;;;;19.54;55.22;99660.53;5008630;28;20038;-62
2022/05/19 03:49:09;;;;;;;3.95;2.65;;;;;;;19.84;53.51;99667.72;5009451;28;20112;-65
2022/05/19 03:51:35;;;;;;;3.65;2.92;;;;;;;20.17;52.53;99660.28;5008827;28;20038;-65
2022/05/19 03:54:01;;;;;;;4.25;2.78;;;;;;;20.42;52.71;99663.38;5008961;28;20037;-64
2022/05/19 03:56:27;;;;;;;4.05;2.97;;;;;;;20.66;50.63;99661.13;5008012;28;20045;-64
2022/05/19 03:58:53;;;;;;;4.13;2.80;;;;;;;20.92;49.88;99657.81;5008297;28;20038;-64
2022/05/19 04:01:20;;;;;;;5.10;3.15;;;;;;;21.16;49.10;99660.00;5008978;28;20104;-65
2022/05/19 04:03:45;;;;;;;7.55;2.72;;;;;;;21.32;48.69;99660.25;5008881;28;20172;-65
2022/05/19 04:06:11;;;;;;;4.30;2.50;;;;;;;21.47;48.92;99660.63;5008335;28;20417;-64
2022/05/19 04:08:36;;;;;;;4.90;2.67;;;;;;;21.57;47.95;99669.47;5009061;28;20048;-65
2022/05/19 04:11:02;;;;;;;5.25;2.70;;;;;;;21.67;47.57;99669.41;5008453;28;20564;-64
2022/05/19 04:13:28;;;;;;;6.35;3.45;;;;;;;21.76;47.89;99668.53;5008787;28;20096;-62
2022/05/19 04:15:53;;;;;;;3.40;2.80;;;;;;;21.81;47.67;99670.75;5007938;28;20037;-66
2022/05/19 04:18:19;;;;;;;2.80;2.40;;;;;;;21.85;47.58;99675.66;5008340;28;20121;-64
2022/05/19 04:20:44;;;;;;;6.65;3.38;;;;;;;21.89;47.60;99678.91;5008494;28;20041;-63
2022/05/19 04:23:10;;;;;;;5.47;3.42;;;;;;;21.91;47.47;99682.28;5009168;28;20060;-65
2022/05/19 04:25:37;;;;;;;6.63;2.80;;;;;;;21.94;47.54;99681.13;5008331;28;20166;-66
2022/05/19 04:28:03;;;;;;;5.50;3.70;;;;;;;21.97;47.34;99683.50;5007903;28;20501;-65
2022/05/19 04:30:28;;;;;;;4.35;2.35;;;;;;;21.99;47.57;99686.88;5008868;28;20042;-64
2022/05/19 04:32:54;;;;;;;4.80;3.20;;;;;;;22.01;47.26;99691.09;5007883;28;20108;-64
2022/05/19 04:35:19;;;;;;;5.00;3.17;;;;;;;22.03;47.19;99697.19;5009686;28;20050;-65
2022/05/19 04:37:46;;;;;;;3.80;2.80;;;;;;;22.06;47.51;99737.13;5008637;28;20482;-64
2022/05/19 04:40:12;;;;;;;4.35;2.40;;;;;;;22.08;47.25;99779.97;5011589;28;20038;-64
2022/05/19 04:42:38;;;;;;;29.10;4.32;;;;;;;22.06;47.57;99796.22;5009239;28;20041;-65
2022/05/19 04:45:04;;;;;;;19.40;3.53;;;;;;;21.96;48.23;99767.72;5010073;28;20029;-64
2022/05/19 04:47:29;;;;;;;10.27;3.97;;;;;;;21.89;48.57;99802.38;5010900;28;20402;-64
2022/05/19 04:49:55;;;;;;;5.70;3.38;;;;;;;21.86;48.50;99811.56;5007064;28;20048;-63
2022/05/19 04:52:21;;;;;;;9.07;3.80;;;;;;;21.83;48.73;99792.22;5008430;28;20037;-64
2022/05/19 04:54:47;;;;;;;7.35;3.22;;;;;;;21.79;48.50;99775.56;5008226;28;20033;-64
2022/05/19 04:57:12;;;;;;;7.00;3.35;;;;;;;21.81;49.03;99813.00;5007967;28;20041;-65
2022/05/19 04:59:39;;;;;;;6.97;3.90;;;;;;;21.83;49.13;99819.03;5007652;28;20076;-66
2022/05/19 05:02:05;;;;;;;8.20;3.95;;;;;;;21.82;48.97;99798.59;5006760;28;20069;-63
2022/05/19 05:04:30;;;;;;;9.50;3.55;;;;;;;21.79;48.92;99775.56;5007254;28;20065;-63
2022/05/19 05:06:56;;;;;;;6.45;3.30;;;;;;;21.74;49.13;99828.84;5005819;28;20030;-62
2022/05/19 05:09:22;;;;;;;7.88;3.75;;;;;;;21.77;49.50;99830.38;5007636;28;20045;-63
2022/05/19 05:11:48;;;;;;;11.20;4.20;;;;;;;21.79;49.22;99821.19;5007445;28;20212;-62
2022/05/19 05:14:14;;;;;;;8.23;3.58;;;;;;;21.77;49.20;99796.34;5007479;28;20496;-62
2022/05/19 05:16:39;;;;;;;5.07;3.50;;;;;;;21.80;49.40;99825.56;5007634;28;20125;-63
2022/05/19 05:19:05;;;;;;;8.10;3.30;;;;;;;21.80;49.28;99830.91;5007622;28;20041;-62
2022/05/19 05:21:31;;;;;;;13.93;3.88;;;;;;;21.80;49.89;99808.63;5007403;28;20042;-64
2022/05/19 05:23:56;;;;;;;5.68;3.20;;;;;;;21.81;49.88;99815.69;5007220;28;20414;-62
2022/05/19 05:26:21;;;;;;;12.82;5.40;;;;;;;21.81;50.34;99840.69;5007399;28;20387;-62
2022/05/19 05:28:47;;;;;;;18.98;4.45;;;;;;;21.89;50.43;99831.91;5005869;28;20038;-63
2022/05/19 05:31:12;;;;;;;10.02;4.10;;;;;;;21.94;49.68;99810.81;5007057;28;20037;-59
2022/05/19 05:33:38;;;;;;;7.07;3.58;;;;;;;21.97;50.24;99798.94;5005991;28;20057;-61
2022/05/19 05:36:03;;;;;;;6.10;3.00;;;;;;;22.04;50.13;99818.84;5006762;28;20038;-64
2022/05/19 05:38:28;;;;;;;4.93;3.63;;;;;;;22.13;50.17;99830.53;5007160;28;20068;-62
2022/05/19 05:40:54;;;;;;;12.93;3.35;;;;;;;22.22;49.88;99817.06;5006812;28;20520;-61
2022/05/19 05:43:21;;;;;;;6.18;4.15;;;;;;;22.26;49.67;99806.88;5006883;28;20053;-62
2022/05/19 05:45:48;;;;;;;9.40;3.40;;;;;;;22.35;49.66;99810.50;5007236;28;20037;-62
2022/05/19 05:48:14;;;;;;;7.25;4.55;;;;;;;22.44;49.70;99814.97;5007884;28;20442;-63
2022/05/19 05:50:40;;;;;;;13.18;4.95;;;;;;;22.51;49.08;99816.88;5007307;28;20085;-63
2022/05/19 05:53:07;;;;;;;4.15;3.30;;;;;;;22.57;48.35;99818.16;5006862;28;20049;-63
2022/05/19 05:55:33;;;;;;;8.15;4.40;;;;;;;22.63;48.77;99809.47;5007088;28;20045;-63
2022/05/19 05:57:59;;;;;;;12.60;3.80;;;;;;;22.76;49.54;99806.38;5004546;28;20127;-62
2022/05/19 06:00:25;;;;;;;8.65;3.67;;;;;;;22.83;49.96;99810.16;5007169;28;20038;-65
2022/05/19 06:02:50;;;;;;;9.68;3.67;;;;;;;22.84;48.74;99802.94;5006657;28;20520;-64
2022/05/19 06:05:17;;;;;;;6.45;3.83;;;;;;;22.91;49.08;99806.69;5005564;28;20045;-66
2022/05/19 06:07:43;;;;;;;5.68;3.53;;;;;;;22.95;47.94;99808.09;5004956;28;20049;-64
2022/05/19 06:10:11;;;;;;;12.00;3.80;;;;;;;23.01;48.65;99806.63;5006825;28;20042;-65
2022/05/19 06:12:37;;;;;;;5.93;3.83;;;;;;;23.05;48.76;99805.34;5006283;28;20048;-65
2022/05/19 06:15:03;;;;;;;7.53;3.72;;;;;;;23.11;49.14;99810.94;5005714;28;21462;-65
2022/05/19 06:17:28;;;;;;;7.68;4.25;;;;;;;23.12;49.21;99793.81;5005770;28;20072;-65
2022/05/19 06:19:53;;;;;;;5.75;3.03;;;;;;;23.15;50.62;99789.94;5005515;28;20030;-64
2022/05/19 06:22:21;;;;;;;5.25;3.08;;;;;;;23.21;50.01;99793.84;5004486;28;20061;-64
2022/05/19 06:24:47;;;;;;;8.13;4.22;;;;;;;23.26;50.65;99791.53;5006611;28;20122;-64
2022/05/19 06:27:12;;;;;;;9.63;4.35;;;;;;;23.22;51.24;99787.50;5006229;28;20105;-63
2022/05/19 06:29:37;;;;;;;8.60;5.07;;;;;;;23.19;51.20;99785.97;5006014;28;20041;-62
2022/05/19 06:32:03;;;;;;;10.38;5.05;;;;;;;23.24;50.85;99780.94;5005298;28;20048;-64
2022/05/19 06:34:28;;;;;;;6.80;3.60;;;;;;;23.28;50.51;99782.34;5006038;28;20038;-63
2022/05/19 06:36:55;;;;;;;6.78;3.38;;;;;;;23.30;51.46;99785.69;5006253;28;20052;-64
2022/05/19 06:39:21;;;;;;;4.25;3.50;;;;;;;23.35;51.68;99787.91;5005247;28;20046;-64
2022/05/19 06:42:01;;;;;;;9.90;3.63;;;;;;;23.37;51.02;99793.97;5005624;28;20045;-64
2022/05/19 06:44:37;;;;;;;4.22;3.15;;;;;;;23.41;51.17;99786.44;5006070;28;20053;-64
2022/05/19 06:47:06;;;;;;;8.00;3.35;;;;;;;23.34;51.57;99772.78;5005963;28;20128;-64
2022/05/19 06:49:31;;;;;;;9.70;3.97;;;;;;;23.21;53.29;99785.78;5006726;28;20128;-65
2022/05/19 06:51:57;;;;;;;8.55;3.80;;;;;;;23.20;53.07;99794.88;5006576;28;20660;-64
2022/05/19 06:54:22;;;;;;;3.97;3.17;;;;;;;23.22;52.25;99790.19;5006629;28;20080;-64
2022/05/19 06:56:48;;;;;;;8.75;4.20;;;;;;;23.33;51.76;99780.00;5004000;28;20189;-65
2022/05/19 06:59:17;;;;;;;8.73;3.88;;;;;;;23.40;51.20;99779.38;5007027;28;20038;-65
2022/05/19 07:01:45;;;;;;;6.65;3.47;;;;;;;23.52;51.15;99783.47;5005812;28;20125;-63
2022/05/19 07:04:11;;;;;;;13.20;3.63;;;;;;;23.57;51.16;99783.84;5006493;28;20050;-65
2022/05/19 07:06:36;;;;;;;5.57;3.80;;;;;;;23.63;51.09;99777.84;5004923;28;20041;-64
2022/05/19 07:09:02;;;;;;;9.75;4.10;;;;;;;23.81;50.30;99783.16;5005850;28;20034;-65
2022/05/19 07:11:27;;;;;;;7.47;3.47;;;;;;;24.10;49.76;99782.78;5006635;28;20042;-64
2022/05/19 07:14:05;;;;;;;7.97;4.22;;;;;;;24.42;48.78;99786.59;5006556;28;20112;-62
2022/05/19 07:16:31;;;;;;;6.43;3.70;;;;;;;24.60;47.32;99781.09;5008840;28;20034;-64
2022/05/19 07:21:43;;;;;;;5.65;3.72;;;;;;;25.32;46.47;99762.38;5010172;28;20040;-65
2022/05/19 07:24:12;;;;;;;5.70;3.95;;;;;;;25.56;46.71;99764.19;5008800;28;20100;-63
2022/05/19 07:26:38;;;;;;;16.02;5.18;;;;;;;25.60;45.65;99759.31;5009790;28;20104;-65
2022/05/19 07:29:03;;;;;;;7.80;3.58;;;;;;;25.89;45.00;99764.09;5010351;28;20482;-64
2022/05/19 07:31:29;;;;;;;4.45;3.40;;;;;;;26.08;44.76;99757.44;5010198;28;20564;-63
2022/05/19 07:33:55;;;;;;;9.00;3.38;;;;;;;26.46;45.82;99758.41;5009990;28;20030;-54
2022/05/19 07:36:20;;;;;;;6.07;3.25;;;;;;;26.70;43.03;99752.00;5009410;28;20042;-57
2022/05/19 07:38:45;;;;;;;7.90;3.83;;;;;;;26.83;43.16;99755.97;5010021;28;20045;-55
2022/05/19 07:41:10;;;;;;;8.32;3.65;;;;;;;26.80;42.24;99754.47;5009633;28;20042;-56
2022/05/19 07:43:36;;;;;;;6.38;3.67;;;;;;;26.53;43.00;99747.75;5009659;28;20061;-55
2022/05/19 07:46:01;;;;;;;6.95;3.55;;;;;;;26.63;42.96;99751.06;5009028;28;20045;-54
2022/05/19 07:48:27;;;;;;;10.02;4.10;;;;;;;26.60;42.39;99742.47;5009651;28;20046;-52
2022/05/19 07:50:52;;;;;;;5.43;3.45;;;;;;;26.64;41.75;99741.09;5009703;28;20061;-57
2022/05/19 07:53:17;;;;;;;4.80;3.58;;;;;;;26.80;41.23;99745.50;5009445;28;20787;-55
2022/05/19 07:55:43;;;;;;;6.22;3.00;;;;;;;27.00;41.26;99741.31;5010269;28;20117;-56
2022/05/19 07:58:08;;;;;;;9.77;4.28;;;;;;;27.16;40.13;99746.53;5007048;28;20092;-57
2022/05/19 08:00:34;;;;;;;6.72;4.18;;;;;;;27.07;40.29;99742.22;5009107;28;20041;-56
2022/05/19 08:02:59;;;;;;;8.23;3.95;;;;;;;27.22;39.93;99738.75;5009409;28;20096;-62
2022/05/19 08:05:25;;;;;;;5.82;3.95;;;;;;;27.54;39.20;99740.25;5009638;28;20150;-66
2022/05/19 08:07:50;;;;;;;7.90;3.65;;;;;;;27.66;38.63;99732.50;5009203;28;20137;-65
2022/05/19 08:10:24;;;;;;;14.98;3.92;;;;;;;27.95;37.85;99726.25;5010010;28;20038;-63
2022/05/19 08:15:35;;;;;;;5.30;3.95;;;;;;;28.40;37.13;99727.81;5009570;28;20060;-62
2022/05/19 08:18:06;;;;;;;8.27;3.35;;;;;;;28.46;36.31;99723.53;5012726;28;20502;-64
2022/05/19 08:20:32;;;;;;;7.53;3.58;;;;;;;28.16;37.18;99720.88;5012089;28;20040;-63
2022/05/19 08:22:58;;;;;;;9.75;3.60;;;;;;;28.15;36.79;99721.88;5010776;28;20042;-65
2022/05/19 08:25:26;;;;;;;5.13;3.15;;;;;;;28.20;36.18;99716.72;5009957;28;20041;-64
2022/05/19 08:27:53;;;;;;;6.68;3.30;;;;;;;28.13;37.02;99715.84;5008547;28;20044;-63
2022/05/19 08:30:19;;;;;;;7.30;4.10;;;;;;;28.09;36.63;99708.28;5009352;28;20033;-60
2022/05/19 08:32:44;;;;;;;4.90;3.20;;;;;;;28.12;36.60;99700.59;5010559;28;20733;-64
2022/05/19 08:35:10;;;;;;;5.07;3.22;;;;;;;28.12;36.24;99703.31;5011254;28;20045;-63
2022/05/19 08:37:35;;;;;;;4.75;3.72;;;;;;;27.94;36.50;99700.19;5009489;28;20038;-63
2022/05/19 08:40:01;;;;;;;3.80;3.10;;;;;;;27.98;37.27;99702.31;5007423;28;20065;-64
2022/05/19 08:42:30;;;;;;;5.10;3.72;;;;;;;27.91;36.75;99696.00;5009793;28;20057;-64
2022/05/19 08:44:58;;;;;;;7.97;3.40;;;;;;;28.01;37.50;99687.56;5009429;28;20128;-62
2022/05/19 08:47:33;;;;;;;7.35;3.83;;;;;;;28.17;36.83;99687.31;5008952;28;20041;-61
2022/05/19 08:50:11;;;;;;;9.57;3.65;;;;;;;28.42;36.36;99686.94;5009187;28;20088;-65
2022/05/19 08:52:39;;;;;;;5.28;3.17;;;;;;;28.54;36.21;99674.56;5010187;28;20065;-66
2022/05/19 08:55:06;;;;;;;7.57;3.72;;;;;;;28.63;36.39;99678.00;5011015;28;20569;-65
2022/05/19 08:57:35;;;;;;;8.55;3.75;;;;;;;28.64;36.59;99675.06;5011541;28;20140;-64
2022/05/19 09:00:10;;;;;;;9.52;4.88;;;;;;;28.78;36.68;99667.88;5012091;28;20034;-64
2022/05/19 09:02:45;;;;;;;5.38;2.83;;;;;;;29.33;34.89;99665.34;5014739;28;20404;-64
2022/05/19 09:05:16;;;;;;;5.28;3.30;;;;;;;29.67;35.01;99661.78;5012417;28;20038;-63
2022/05/19 09:08:20;;;;;;;6.35;3.42;;;;;;;30.16;33.98;99662.56;5012196;28;20037;-64
2022/05/19 09:11:12;;;;;;;9.13;3.20;;;;;;;30.59;33.32;99656.78;4984919;28;20042;-65
2022/05/19 09:14:05;;;;;;;6.72;3.33;;;;;;;31.25;32.13;99645.00;4986176;28;20499;-64
2022/05/19 09:16:34;;;;;;;5.20;3.80;;;;;;;31.35;32.15;99645.38;5003743;28;20041;-64
2022/05/19 09:19:04;;;;;;;5.63;2.75;;;;;;;31.85;31.66;99631.16;5008349;28;20062;-65
2022/05/19 09:21:30;;;;;;;6.50;3.42;;;;;;;32.61;29.82;99632.16;5008348;28;20076;-65
2022/05/19 09:23:55;;;;;;;4.43;3.13;;;;;;;33.09;30.08;99613.22;5008063;28;20065;-65
2022/05/19 09:26:39;;;;;;;8.82;4.18;;;;;;;33.70;28.49;99616.09;5006505;28;20092;-64
2022/05/19 09:29:12;;;;;;;11.82;3.90;;;;;;;33.84;27.74;99612.09;5008344;28;20033;-64
2022/05/19 09:31:51;;;;;;;4.53;3.83;;;;;;;34.06;27.60;99606.94;5008418;28;20038;-65
2022/05/19 09:34:18;;;;;;;10.02;2.80;;;;;;;34.32;27.24;99613.94;5008046;28;20045;-65
2022/05/19 09:37:12;;;;;;;7.32;3.17;;;;;;;34.78;26.67;99617.81;5007251;28;20490;-64
2022/05/19 09:39:59;;;;;;;10.60;4.10;;;;;;;35.08;27.17;99618.75;5007962;28;20064;-64
2022/05/19 09:42:35;;;;;;;8.02;3.80;;;;;;;35.41;26.38;99618.94;5007528;28;20046;-64
2022/05/19 09:45:02;;;;;;;9.02;3.97;;;;;;;35.70;26.09;99621.75;4993252;28;20072;-65
2022/05/19 09:47:37;;;;;;;5.93;3.53;;;;;;;35.90;25.81;99615.81;4987618;28;20068;-65
2022/05/19 09:50:19;;;;;;;5.68;3.40;;;;;;;35.64;26.48;99611.75;4988324;28;20581;-64
2022/05/19 09:52:46;;;;;;;12.75;5.25;;;;;;;35.77;26.03;99610.63;4988053;28;20495;-64
2022/05/19 09:55:14;;;;;;;6.63;3.53;;;;;;;34.69;26.82;99605.56;5001194;28;20053;-65
2022/05/19 09:57:43;;;;;;;4.15;3.13;;;;;;;33.55;28.52;99602.81;5006529;28;20048;-64
2022/05/19 10:00:18;;;;;;;5.10;2.95;;;;;;;33.81;28.34;99603.53;5006928;28;20113;-65
2022/05/19 10:02:48;;;;;;;4.28;3.15;;;;;;;34.36;27.79;99600.59;5004632;28;20034;-64
2022/05/19 10:05:25;;;;;;;8.23;3.45;;;;;;;34.74;26.94;99599.38;5006892;28;20744;-65
2022/05/19 10:07:57;;;;;;;5.82;3.58;;;;;;;34.30;27.09;99588.69;5006979;28;20033;-63
2022/05/19 10:10:30;;;;;;;12.82;3.58;;;;;;;34.55;26.77;99590.41;5005954;28;20044;-65
2022/05/19 10:13:02;;;;;;;5.43;3.00;;;;;;;34.82;26.07;99588.88;5017849;28;20037;-65
2022/05/19 10:15:40;;;;;;;4.07;2.83;;;;;;;35.15;25.71;99583.84;5007260;28;20578;-65
2022/05/19 10:18:13;;;;;;;6.35;2.88;;;;;;;34.61;25.67;99590.31;5007199;28;20045;-64
2022/05/19 10:20:53;;;;;;;6.87;2.70;;;;;;;34.96;25.28;99592.19;5006931;28;20501;-64
2022/05/19 10:23:58;;;;;;;6.13;2.63;;;;;;;33.81;26.23;99592.59;5007134;28;20293;-64
2022/05/19 10:26:35;;;;;;;3.58;2.78;;;;;;;33.86;26.68;99587.25;5007286;28;20125;-66
2022/05/19 10:32:24;;;;;;;18.55;3.70;;;;;;;34.59;26.70;99584.25;5006670;28;20126;-65
2022/05/19 10:35:07;;;;;;;8.52;2.95;;;;;;;35.26;25.51;99575.59;5006278;28;20037;-65
2022/05/19 10:38:07;;;;;;;9.13;3.60;;;;;;;36.01;24.47;99573.78;5006621;28;20052;-64
2022/05/19 10:40:36;;;;;;;11.40;3.72;;;;;;;36.18;24.46;99573.78;5006250;28;20041;-66
2022/05/19 10:43:16;;;;;;;6.35;3.35;;;;;;;35.91;24.31;99570.81;5006221;28;20405;-64
2022/05/19 10:45:47;;;;;;;8.30;4.10;;;;;;;36.19;24.51;99571.91;5006591;28;20056;-64
2022/05/19 10:48:50;;;;;;;4.28;2.67;;;;;;;36.50;23.87;99562.22;5006540;28;20469;-64
2022/05/19 10:51:17;;;;;;;5.03;2.70;;;;;;;35.88;24.17;99569.41;5006146;28;20533;-65
2022/05/19 10:54:23;;;;;;;6.05;3.53;;;;;;;35.48;24.40;99559.31;5006572;28;20046;-65
2022/05/19 10:57:20;;;;;;;4.60;3.08;;;;;;;34.87;25.16;99562.66;4999740;28;20117;-64
2022/05/19 10:59:46;;;;;;;7.28;3.03;;;;;;;34.21;25.93;99557.28;5004767;28;20502;-65
2022/05/19 11:02:49;;;;;;;6.10;2.97;;;;;;;34.13;26.27;99557.63;5007125;28;20041;-63
2022/05/19 11:05:49;;;;;;;17.42;3.47;;;;;;;33.79;26.63;99549.06;5006415;28;20276;-64
2022/05/19 11:08:15;;;;;;;6.35;2.92;;;;;;;33.38;27.08;99560.78;5002244;28;20096;-64
2022/05/19 11:10:51;;;;;;;6.43;2.67;;;;;;;33.35;27.32;99560.16;5006612;28;20045;-64
2022/05/19 11:14:03;;;;;;;12.63;3.15;;;;;;;33.32;27.22;99562.50;5006198;28;20299;-64
2022/05/19 11:16:47;;;;;;;7.20;3.25;;;;;;;33.33;27.61;99556.00;5005990;28;20037;-63
2022/05/19 11:19:22;;;;;;;5.77;3.07;;;;;;;33.25;27.40;99557.16;5006761;28;20071;-65
2022/05/19 11:22:05;;;;;;;5.63;3.30;;;;;;;32.90;27.13;99557.72;5005024;28;20663;-65
2022/05/19 11:26:23;;;;;;;5.97;3.10;;;;;;;32.59;27.66;99555.09;5006622;28;20045;-64
2022/05/19 11:27:25;;;;;;;6.50;2.92;;;;;;;32.67;27.41;99552.09;5006371;28;20112;-64
2022/05/19 11:30:03;;;;;;;5.05;3.40;;;;;;;32.71;28.05;99548.69;5007104;28;20038;-64
2022/05/19 11:32:33;;;;;;;3.25;2.67;;;;;;;32.80;28.04;99537.47;5018843;28;20044;-64
2022/05/19 11:35:12;;;;;;;5.13;3.10;;;;;;;32.70;27.97;99535.25;5006365;28;20083;-64
2022/05/19 11:37:59;;;;;;;9.75;2.95;;;;;;;32.62;28.15;99524.66;5006267;28;20033;-64
2022/05/19 11:40:36;;;;;;;5.40;2.67;;;;;;;32.48;28.34;99529.34;5005945;28;20038;-65
2022/05/19 11:43:24;;;;;;;7.93;5.05;;;;;;;32.46;28.45;99520.56;5006333;28;20675;-64
2022/05/19 11:45:59;;;;;;;6.53;2.72;;;;;;;32.32;28.71;99519.88;5005885;28;20038;-62
2022/05/19 11:57:24;;;;;;;5.07;2.75;;;;;;;31.87;29.67;99503.63;5005989;28;20052;-63
2022/05/19 11:59:55;;;;;;;25.50;3.17;;;;;;;31.88;29.98;99519.78;5006129;28;20042;-64
2022/05/19 12:02:28;;;;;;;5.03;2.85;;;;;;;31.85;29.99;99512.03;5007113;28;20053;-64
2022/05/19 12:05:01;;;;;;;9.50;2.90;;;;;;;31.65;30.21;99506.72;5009440;28;20592;-63
2022/05/19 12:07:54;;;;;;;7.05;3.58;;;;;;;31.70;30.40;99503.31;5009922;28;20172;-65